Time;durP1;ratioP1;P1;durP2;ratioP2;P2;SDS_P1;SDS_P2;PMS_P1;PMS_P2;Temp;Humidity;BMP_temperature;BMP_pressure;BME280_temperature;BME280_humidity;BME280_pressure;Samples;Min_cycle;Max_cycle;Signal;HPM_P1;HPM_P2
2022/04/12 08:14:24;;;;;;;3.45;2.95;;;11.80;81.10;;;;;;1940800;74;28102;-65
2022/04/12 08:19:02;;;;;;;2.98;2.10;;;11.30;73.10;;;;;;1957969;72;25174;-62
2022/04/12 08:23:53;;;;;;;6.60;2.22;;;11.00;73.50;;;;;;1958114;73;25801;-59
2022/04/12 08:26:23;;;;;;;6.35;3.05;;;10.90;74.00;;;;;;1917448;75;21082;-59
2022/04/12 08:28:51;;;;;;;6.17;2.08;;;;;;;;;;1917522;75;21237;-60
2022/04/12 08:31:20;;;;;;;3.40;2.30;;;;;;;;;;1917325;75;21127;-59
2022/04/12 08:33:48;;;;;;;2.02;1.30;;;;;;;;;;1917477;75;21070;-60
2022/04/12 08:36:20;;;;;;;1.70;1.30;;;;;;;;;;1917691;75;21073;-61
2022/04/12 08:38:49;;;;;;;2.47;1.50;;;;;;;;;;1917174;73;21083;-60
2022/04/12 08:41:19;;;;;;;2.17;1.52;;;;;;;;;;1917578;75;21077;-59
2022/04/12 08:43:52;;;;;;;8.95;1.17;;;;;;;;;;1917310;75;22152;-65
2022/04/12 08:46:18;;;;;;;5.62;1.52;;;;;;;;;;1917081;74;21139;-60
2022/04/12 08:48:47;;;;;;;1.60;1.15;;;;;;;;;;1917615;74;21015;-59
2022/04/12 08:51:56;;;;;;;1.22;1.10;;;11.10;70.40;;;;;;1958133;73;26235;-64
2022/04/12 08:54:26;;;;;;;4.87;1.10;;;11.00;73.60;;;;;;1917302;75;21125;-67
2022/04/12 08:56:55;;;;;;;5.40;1.15;;;11.00;73.80;;;;;;1917295;75;21175;-60
2022/04/12 08:59:25;;;;;;;2.83;1.00;;;11.00;71.50;;;;;;1896557;75;21024;-63
2022/04/12 09:01:54;;;;;;;4.55;1.25;;;10.90;71.40;;;;;;1887832;75;21036;-63
2022/04/12 09:04:26;;;;;;;5.60;1.00;;;10.90;71.80;;;;;;1917674;73;21047;-67
2022/04/12 09:06:56;;;;;;;2.02;0.82;;;10.90;71.70;;;;;;1917501;75;21105;-64
2022/04/12 09:09:30;;;;;;;1.30;0.60;;;10.90;70.20;;;;;;1916822;75;21551;-64
2022/04/12 09:12:06;;;;;;;5.10;1.00;;;10.90;70.60;;;;;;1917534;75;21159;-63
2022/04/12 09:14:44;;;;;;;2.08;0.90;;;10.80;69.60;;;;;;1917405;75;21088;-64
2022/04/12 09:17:14;;;;;;;2.83;0.93;;;;;;;;;;1917334;75;21088;-64
2022/04/12 09:28:41;;;;;;;2.12;1.62;;;10.90;70.50;;;;;;1958222;73;25670;-58
2022/04/12 09:31:16;;;;;;;1.02;0.68;;;10.90;70.20;;;;;;1917460;74;21116;-60
2022/04/12 09:59:08;;;;;;;0.60;0.60;;;10.20;71.60;;;;;;1958408;73;25790;-65
2022/04/12 10:01:46;;;;;;;;;;;;;;;;;;1920265;75;21054;-64
2022/04/12 10:04:25;;;;;;;0.60;0.60;;;;;;;;;;1917074;74;20742;-64
2022/04/12 10:07:04;;;;;;;1.50;1.07;;;;;;;;;;1916374;74;21026;-65
2022/04/12 10:09:40;;;;;;;5.75;1.07;;;;;;;;;;1916345;74;21118;-65
2022/04/12 10:12:21;;;;;;;0.88;0.70;;;;;;;;;;1916621;74;21111;-65
2022/04/12 10:14:53;;;;;;;2.20;1.17;;;;;;;;;;1902075;74;21132;-66
2022/04/12 10:17:22;;;;;;;1.92;1.00;;;;;;;;;;1900815;75;21053;-65
2022/04/12 10:19:51;;;;;;;1.82;0.98;;;;;;;;;;1902614;75;21044;-65
2022/04/12 10:22:20;;;;;;;12.58;1.10;;;;;;;;;;1900033;75;21028;-66
2022/04/12 10:24:49;;;;;;;5.15;1.15;;;;;;;;;;1900094;75;21011;-61
2022/04/12 10:27:18;;;;;;;3.10;1.55;;;;;;;;;;1898225;75;21101;-64
2022/04/12 10:30:05;;;;;;;1.95;0.93;;;;;;;;;;1901184;75;21121;-65
2022/04/12 10:32:33;;;;;;;1.80;1.20;;;;;;;;;;1902637;75;21050;-65
2022/04/12 10:35:02;;;;;;;1.92;1.20;;;;;;;;;;1897612;75;21337;-59
2022/04/12 10:37:32;;;;;;;1.20;1.10;;;;;;;;;;1899744;75;21095;-65
2022/04/12 10:40:02;;;;;;;3.75;1.40;;;;;;;;;;1896779;75;21015;-65
2022/04/12 10:42:33;;;;;;;1.70;0.78;;;;;;;;;;1913614;74;21051;-66
2022/04/12 10:45:02;;;;;;;1.32;0.90;;;;;;;;;;1902626;75;21337;-63
2022/04/12 10:47:35;;;;;;;2.47;1.32;;;;;;;;;;1900975;75;21102;-63
2022/04/12 10:50:08;;;;;;;1.80;1.00;;;;;;;;;;1899535;75;21082;-63
2022/04/12 10:52:38;;;;;;;1.75;1.25;;;;;;;;;;1900284;75;21003;-65
2022/04/12 10:55:07;;;;;;;1.32;1.00;;;;;;;;;;1890225;75;21665;-66
2022/04/12 10:57:36;;;;;;;2.83;1.22;;;;;;;;;;1885026;76;21056;-66
2022/04/12 11:00:08;;;;;;;3.08;1.40;;;;;;;;;;1888980;75;21146;-66
2022/04/12 11:02:38;;;;;;;4.58;1.50;;;;;;;;;;1906274;75;21057;-66
2022/04/12 11:05:07;;;;;;;4.53;2.02;;;;;;;;;;1913973;75;21129;-65
2022/04/12 11:07:37;;;;;;;2.67;1.22;;;;;;;;;;1914744;75;21082;-66
2022/04/12 11:10:07;;;;;;;3.47;1.70;;;;;;;;;;1914723;75;21083;-66
2022/04/12 11:12:42;;;;;;;1.52;1.02;;;;;;;;;;1906836;75;21132;-66
2022/04/12 11:15:24;;;;;;;3.70;1.10;;;;;;;;;;1914787;75;21035;-65
2022/04/12 11:18:12;;;;;;;8.88;2.40;;;;;;;;;;1914840;75;21461;-66
2022/04/12 11:20:41;;;;;;;10.30;1.62;;;;;;;;;;1914872;75;21441;-66
2022/04/12 11:23:12;;;;;;;2.67;1.25;;;;;;;;;;1914761;74;21089;-66
2022/04/12 11:25:51;;;;;;;5.12;1.90;;;;;;;;;;1914796;75;20995;-66
2022/04/12 11:28:24;;;;;;;4.55;2.05;;;;;;;;;;1914779;75;21088;-66
2022/04/12 11:30:53;;;;;;;5.22;1.70;;;;;;;;;;1914845;75;21089;-65
2022/04/12 11:33:26;;;;;;;4.17;1.70;;;;;;;;;;1914839;75;21081;-65
2022/04/12 11:35:56;;;;;;;5.33;1.92;;;;;;;;;;1914272;75;21155;-65
2022/04/12 11:38:25;;;;;;;4.17;1.90;;;;;;;;;;1914853;75;21023;-66
2022/04/12 11:40:55;;;;;;;3.65;1.92;;;;;;;;;;1914843;75;21016;-65
2022/04/12 11:43:24;;;;;;;2.85;1.60;;;;;;;;;;1914360;75;21015;-66
2022/04/12 11:45:54;;;;;;;3.37;1.60;;;;;;;;;;1914774;75;21031;-67
2022/04/12 11:48:23;;;;;;;6.25;2.45;;;;;;;;;;1914762;75;21023;-66
2022/04/12 11:50:53;;;;;;;1.50;1.32;;;;;;;;;;1914887;75;21023;-66
2022/04/12 11:53:22;;;;;;;6.62;2.20;;;;;;;;;;1913992;74;21104;-67
2022/04/12 11:55:51;;;;;;;4.78;1.87;;;;;;;;;;1914856;75;21084;-66
2022/04/12 11:58:20;;;;;;;5.17;1.80;;;;;;;;;;1911973;74;21047;-66
2022/04/12 12:00:50;;;;;;;6.40;2.15;;;;;;;;;;1905126;74;21075;-67
2022/04/12 12:03:19;;;;;;;2.40;1.77;;;;;;;;;;1905266;75;21035;-66
2022/04/12 12:05:48;;;;;;;5.92;2.25;;;;;;;;;;1905277;74;21133;-66
2022/04/12 12:08:23;;;;;;;3.75;1.67;;;;;;;;;;1905303;74;21058;-66
2022/04/12 12:10:52;;;;;;;3.77;1.72;;;;;;;;;;1905432;74;21000;-66
2022/04/12 12:13:25;;;;;;;5.17;1.85;;;;;;;;;;1905270;75;21019;-66
2022/04/12 12:15:54;;;;;;;1.20;1.10;;;;;;;;;;1905317;75;21031;-67
2022/04/12 12:18:23;;;;;;;3.37;1.70;;;;;;;;;;1905334;74;21035;-67
2022/04/12 12:20:52;;;;;;;2.08;1.62;;;;;;;;;;1905282;75;21078;-66
2022/04/12 12:23:21;;;;;;;1.75;1.20;;;;;;;;;;1905313;75;20992;-67
2022/04/12 12:25:51;;;;;;;5.28;1.95;;;;;;;;;;1905357;74;21093;-67
2022/04/12 12:28:21;;;;;;;3.55;1.70;;;;;;;;;;1905328;75;21020;-67
2022/04/12 12:30:51;;;;;;;2.37;2.15;;;;;;;;;;1904594;74;21047;-67
2022/04/12 12:33:21;;;;;;;5.72;1.60;;;;;;;;;;1904928;74;21089;-66
2022/04/12 12:35:51;;;;;;;3.33;1.87;;;;;;;;;;1905222;74;21033;-67
2022/04/12 12:38:21;;;;;;;5.55;2.65;;;;;;;;;;1905250;75;21012;-66
2022/04/12 12:40:51;;;;;;;3.50;1.70;;;;;;;;;;1905196;75;21036;-67
2022/04/12 12:43:19;;;;;;;3.58;2.00;;;;;;;;;;1905053;74;20992;-66
